Flugplatz Bad Wildungen (UL)

Hier findest Du alle Informationen zum Flugplatz Bad Wildungen (UL).

Informationen für Piloten zum Flugplatz Bad Wildungen

Hier findest Du alle relevanten Informationen, die Du als Pilot benötigst, um Bad Wildungen anzufliegen.

Flugplatz: Bad Wildungen ICAO-Code: UL Flugplatz
Frequenz Turm: 128,840 Mhz GAFOR Gebiet: 43
Frequenz Ground: 128,840 Mhz Mogas: nein
Platzrunde: O 0 ft Landegebühr: 10,00 €
Platzhöhe: - Sunrise: 03:06 Uhr UTC
Pisten: 01/19 - 1000 m x 50 m, GRAS Sunset: 19:44 Uhr UTC

Mitglieder, die in Bad Wildungen fliegen

Flugwetter am Flugplatz Bad Wildungen

Die METAR Information stammen aus EDVK (38.16 km entfernt).

METAR Code:
2021/06/14 14:20
EDVK 141420Z VRB03KT CAVOK 26/11 Q1020

Flugschulen am Flugplatz Bad Wildungen

Am Flugplatz Bad Wildungen gibt es leider keine Flugschule.

Benachbarte Flugplätze und Flugschulen

Es gibt 16 weitere Flugplätze in einem Umkreis von 50 km um den Flugplatz Bad Wildungen.

Jetzt anmelden

Passwort vergessen

Umfrage Archiv

Seid Ihr aufgrund von Corona im Jahr 2020 mehr oder weniger geflogen als im Jahr zuvor?

weniger
56.5 %
gleich viel
26.3 %
mehr
17.3 %
Stimmen: 255 | Diskussion
Anzeige: Roland Aircraft
Statistik Alle Mitglieder

Aktuell sind 70 Besucher online, davon 4 Mitglieder und 66 Gäste.


Mitglieder online:
Moskito_Andi  hennes  Pruberi  *Chilla 

Anzeige: VFR Sprechfunk Simulator Anzeige: Pocket FMS